• Join FlightAware (Why Join?)
  • Login
  • US Flag GB Flag 
17:38 EST


 

Airport Tracker/Info


-or-


 

Live Flight TrackerFlight Track Log ✈ ASQ5025 ✈ 05-May-2013 ✈ KBTV - KLGA

Flight Track Log - Related Links

Times and Time Zones

All times are in EDT time to prevent confusion due to time zone crossing. See the ASQ5025 flight status page for this flight to view local times or setup timezone preferences in your user account.

Time Position Orientation Groundspeed Altitude Reporting Facility
EDT Latitude Longitude Course Direction KTS MPH feet Rate Location/Type
11:36 44.3800 -73.1489 196° South 203 234 4,200  Level Boston Center
11:37 44.3111 -73.1769 196° South 245 282 6,800 2,760 Climbing Boston Center
11:38 44.2339 -73.2078 196° South 273 314 9,800 2,340 Climbing Boston Center
11:39 44.1522 -73.2417 197° South 294 338 11,500 1,800 Climbing Boston Center
11:40 44.0539 -73.3067 205° Southwest 347 399 13,400 2,100 Climbing Boston Center
11:41 43.9829 -73.3335 196° South  Level FlightAware Approximate
11:41 43.9800 -73.4094 225° Southwest 369 425 15,800  Level Boston Center
11:42 43.9061 -73.5178 227° Southwest 380 437 17,700 1,620 Climbing Boston Center
11:43 43.8300 -73.6258 226° Southwest 397 457 19,100 1,500 Climbing Boston Center
11:44 43.7214 -73.6697 196° South 387 445 20,800 1,380 Climbing Boston Center
11:45 43.6192 -73.6847 186° South 403 464 22,200 1,260 Climbing Boston Center
11:46 43.4792 -73.7019 185° South 414 476 23,600 900 Climbing Boston Center
11:47 43.3561 -73.7164 185° South 435 501 24,000 180 Climbing Boston Center
11:48 43.2481 -73.6942 171° South 430 495 24,000  Level Boston Center
11:49 43.1483 -73.6639 168° South 398 458 24,000  Level Boston Center
11:50 43.0269 -73.6983 192° South 384 442 24,000 -540 Level Boston Center
11:51 42.8908 -73.7522 196° South 410 472 22,900 -1,200 Descending Boston Center
11:52 42.7764 -73.7469 178° South 416 479 21,700 -1,200 Descending Boston Center
11:53 42.6703 -73.7306 174° South 399 459 20,500 -1,200 Descending Boston Center
11:54 42.5725 -73.7172 174° South 399 459 19,400 -1,200 Descending Boston Center
11:55 42.4683 -73.6983 172° South 394 453 18,200 -720 Descending Boston Center
11:56 42.3519 -73.6817 174° South 382 440 18,000 -120 Descending Boston Center
11:57 42.2603 -73.6717 175° South 377 434 18,000  Level Boston Center
11:58 42.1564 -73.6583 175° South 377 434 18,000  Level Boston Center
11:59 42.0539 -73.6814 189° South 377 434 18,000  Level Boston Center
12:00 41.9431 -73.7156 193° South 377 434 18,000 -300 Level Boston Center
12:01 41.8511 -73.7472 194° South 377 434 17,500 -780 Descending Boston Center
12:03 41.7422 -73.7811 193° South 372 428 16,400 -1,140 Descending Boston Center
12:04 41.6272 -73.8203 194° South 365 420 15,000 -1,860 Descending Boston Center
12:05 41.5308 -73.8517 194° South 360 414 12,700 -2,520 Descending Boston Center
12:05 41.5000 -73.8667 200° South 347 399 11,500 -1,860 Descending New York TRACON
12:06 41.4167 -73.8500 171° South 303 349 10,100 -1,260 Descending New York TRACON
12:07 41.3500 -73.8000 151° Southeast 271 312 9,000 -600 Descending New York TRACON
12:08 41.2833 -73.7500 151° Southeast 280 322 9,000  Level New York TRACON
12:09 41.2167 -73.6833 143° Southeast 277 319 9,000 -660 Level New York TRACON
12:10 41.1667 -73.6333 143° Southeast 269 310 7,700 -1,500 Descending New York TRACON
12:11 41.1000 -73.6167 169° South 292 336 6,000 -1,620 Descending New York TRACON
12:12 41.0167 -73.6667 204° Southwest 283 326 4,300 -960 Descending New York TRACON
12:13 40.9667 -73.7500 232° Southwest 276 318 4,000 -180 Descending New York TRACON
12:14 40.9333 -73.8333 242° Southwest 278 320 4,000  Level New York TRACON
12:15 40.8833 -73.9167 232° Southwest 272 313 4,000  Level New York TRACON
12:16 40.8333 -73.9667 217° Southwest 277 319 4,000  Level New York TRACON
12:17 40.7500 -74.0167 204° Southwest 276 318 4,000 -480 Level New York TRACON
12:18 40.6833 -74.0500 201° Southwest 266 306 3,100 -540 Descending New York TRACON
12:19 40.6333 -74.0500 180° South 201 231 3,000 -300 Descending New York TRACON
12:20 40.6333 -74.0000 90° East 180 207 2,600 -540 Descending New York TRACON
12:21 40.6667 -73.9667 37° Northeast 177 204 2,000 -600 Descending New York TRACON
12:22 40.7167 -73.9333 27° Northeast 141 162 1,500 -600 Descending New York TRACON
12:23 40.7333 -73.9167 37° Northeast 132 152 800 -720 Descending New York TRACON